Trenton, South Carolina
Current Conditions -  °F | °C
As of 2:55 PM on Sunday 23 Nov 2014 (Local Time) from KAIK Reporting Station
Drizzle Drizzle  
Wind Chill: 61°   Ceiling: 500
Heat Index: 61°   Visibility: 5mi
Dew Point: 61°   Wind: 10mph
Humidity: 100%   Direction: 110°ESE
Pressure: 29.9"   Gusts: NA
Location:  33.74°N, 81.84°W
Report Text: KAIK 231955Z AUTO 11009KT 5SM DZ OVC005 16/16 A2990 RMK AO2 PNO
Loading
Personal Weather Stations






























Interactive Weather Map New forecast layout! Learn more

10-Day Weather Forecast

Advertisements
Track Severe Weather on mobile